Gold Beach, OR

5:08 PM PDT on August 21, 2014 (GMT -0700)
Brookings | Change Station
CLOSE
Current Station
Airport
Location: Brookings,
Elevation: 459 ft
Nearby Weather Stations

Elev 459 ft 42.07 °N, 124.29 °W | Updated 12 minutes ago

Clear
Clear
78 °F
Feels Like 78 °F
N
12
Wind Variable Wind from NW
Gusts 20 mph

Today
High -- | Low -- °F
--% Chance of Precip.
Yesterday
High -- | Low -- °F
Precip. -- in
6:30 AM 8:09 PM
Waning Crescent, 11% visible
Pressure 29.96 in
Visibility 10.0 miles
Clouds Clear
Dew Point 46 °F
Humidity 32%
Rainfall 0.00 in
Snow Depth Not available.
UV 4 out of 12
Pollen 5.30 out of 12
Air Quality Not available.
Flu Activity Not available.
METAR KBOK 212356Z AUTO 32010G17KT 10SM CLR 26/08 A2996 RMK AO2 56010 T02550077 10266 20205 SLP144

More Conditions Fewer Conditions

Pressure 29.96 in
Visibility 10.0 miles
Clouds Clear
Dew Point 46 °F
Humidity 32%
Rainfall 0.00 in
Snow Depth Not available.
UV 4 out of 12
Pollen 5.30 out of 12
Air Quality Not available.
Flu Activity Not available.
METAR KBOK 212356Z AUTO 32010G17KT 10SM CLR 26/08 A2996 RMK AO2 56010 T02550077 10266 20205 SLP144

More Conditions Fewer Conditions

10-Day Weather Forecast

Almanac

Astronomy

Aug. 21, 2014 Rise Set
Actual Time 6:30 AM PDT 8:09 PM PDT
Civil Twilight 6:01 AM PDT 8:39 PM PDT
Nautical Twilight 5:25 AM PDT 9:14 PM PDT
Astronomical Twilight 4:46 AM PDT 9:53 PM PDT
Moon 3:04 AM PDT (8/21) 5:43 PM PDT (8/21)
Length of Visible Light 14h 37m
Length of Day
13h 38m
Tomorrow will be 2m 39s shorter.
Waning Crescent, 11% of the Moon is Illuminated
Today
Waning Crescent
Aug 25
New
Sep 2
First Quarter
Sep 8
Full
Sep 15
Last Quarter

Today's Extremes

State Highs State Lows

Community

WunderPhotos

Upload Photos

1,746,059 photos uploaded!

Nearby

Snow Depth

Station Depth Elevation
Fish Lake 0 in 4665 ft
Fourmile Lake 1 in 6000 ft
Sevenmile Marsh 0 in 6200 ft
Diamond Lake 0 in 5315 ft
Strawberry 0 in 5760 ft

Earthquake Activity

City Distance Mag. Time & Date
Crescent City, California 111 miles 2.8 2:15 PM PDT
2014-08-15
Minimum magnitude displayed is 2.5.

Coastal Water Temperatures

Place Temperature
Port Orford, OR 48.9 °F
Crescent City, CA 61.0 °F
Charleston, OR 55.0 °F

Nearby Weather Stations